MSC Baleares — V7DP5 — position and weather

sailwx.info

Track history (hours):
 
Tides and Currents Weather Stations Pressure Air Temp Water Temp Dewpoint Dewpoint Depression Visibility Wind Speed Wind Dir Waves Ship Positions

MSC Baleares

Last reported at 2017-Nov-04 18:35 UTC. Time now 2017-Nov-18 12:26 UTC.
Position N 26°20' W 079°22'.
Warning: this ship's position is 13 days out of date.

Length 202 m; draft 0.87 m.

Type: Cargo ship. MMSI: 538001686.

Date/timePositionNaut miles runAvg speedWind from/ knotsBaromVisibWave heightAir tempDewpointWater temp
2017-Nov-04 18:35N 26°20' W 079°22'513.0
2017-Nov-04 18:12N 26°15' W 079°23'313.1
2017-Nov-04 18:00N 26°13' W 079°24'713.1
2017-Nov-04 17:30N 26°07' W 079°27'713.2
2017-Nov-04 17:00N 26°00' W 079°29'713.4
2017-Nov-04 16:30N 25°54' W 079°31'713.6
2017-Nov-04 16:00N 25°47' W 079°33'713.8
2017-Nov-04 15:30N 25°41' W 079°35'713.8
2017-Nov-04 15:00N 25°34' W 079°35'713.7
2017-Nov-04 14:30N 25°27' W 079°34'713.8
2017-Nov-04 13:58N 25°20' W 079°34'  
Track history (hours):
 
Tides and Currents Weather Stations Pressure Air Temp Water Temp Dewpoint Dewpoint Depression Visibility Wind Speed Wind Dir Waves Ship Positions

MSC Baleares

Last reported at 2017-Nov-04 18:35 UTC. Time now 2017-Nov-18 12:26 UTC.
Position N 26°20' W 079°22'.
Warning: this ship's position is 13 days out of date.

Length 202 m; draft 0.87 m.

Type: Cargo ship. MMSI: 538001686.

Date/timePositionNaut miles runAvg speedWind from/ knotsBaromVisibWave heightAir tempDewpointWater temp
2017-Nov-04 18:35N 26°20' W 079°22'513.0
2017-Nov-04 18:12N 26°15' W 079°23'313.1
2017-Nov-04 18:00N 26°13' W 079°24'713.1
2017-Nov-04 17:30N 26°07' W 079°27'713.2
2017-Nov-04 17:00N 26°00' W 079°29'713.4
2017-Nov-04 16:30N 25°54' W 079°31'713.6
2017-Nov-04 16:00N 25°47' W 079°33'713.8
2017-Nov-04 15:30N 25°41' W 079°35'713.8
2017-Nov-04 15:00N 25°34' W 079°35'713.7
2017-Nov-04 14:30N 25°27' W 079°34'713.8
2017-Nov-04 13:58N 25°20' W 079°34'  

Dump ship's entire track history